Time;durP1;ratioP1;P1;durP2;ratioP2;P2;SDS_P1;SDS_P2;PMS_P1;PMS_P2;Temp;Humidity;BMP_temperature;BMP_pressure;BME280_temperature;BME280_humidity;BME280_pressure;Samples;Min_cycle;Max_cycle;Signal;HPM_P1;HPM_P2
2021/10/10 00:01:49;;;;;;;17.45;6.72;;;9.30;86.40;;;;;;5031453;28;20237;-73
2021/10/10 00:04:15;;;;;;;13.30;6.70;;;9.20;86.80;;;;;;5031563;28;20097;-73
2021/10/10 00:06:41;;;;;;;14.18;6.45;;;9.20;87.20;;;;;;5031877;28;20081;-73
2021/10/10 00:09:06;;;;;;;18.30;7.20;;;9.00;87.50;;;;;;5046811;28;20042;-73
2021/10/10 00:11:32;;;;;;;14.65;6.60;;;9.10;87.50;;;;;;5031180;28;20099;-73
2021/10/10 00:13:58;;;;;;;18.48;6.43;;;9.00;87.80;;;;;;5031351;28;20068;-72
2021/10/10 00:16:23;;;;;;;13.32;6.32;;;9.00;87.80;;;;;;5031237;28;20387;-72
2021/10/10 00:18:49;;;;;;;12.32;6.80;;;9.00;87.60;;;;;;5047197;28;20469;-73
2021/10/10 00:21:15;;;;;;;13.55;7.38;;;9.00;87.70;;;;;;5031218;28;20033;-74
2021/10/10 00:23:41;;;;;;;15.32;6.95;;;8.90;87.60;;;;;;5031284;28;20029;-72
2021/10/10 00:26:07;;;;;;;13.13;7.00;;;8.90;87.60;;;;;;5031175;28;20076;-73
2021/10/10 00:28:32;;;;;;;13.77;6.05;;;8.90;88.00;;;;;;5031361;28;20151;-73
2021/10/10 00:30:58;;;;;;;17.52;6.72;;;8.90;87.70;;;;;;5033672;28;20021;-73
2021/10/10 00:33:25;;;;;;;14.60;6.43;;;9.00;87.80;;;;;;5035332;28;20040;-73
2021/10/10 00:35:50;;;;;;;13.65;6.65;;;8.80;88.20;;;;;;5034944;28;20383;-73
2021/10/10 00:38:16;;;;;;;15.13;6.22;;;8.80;88.40;;;;;;5035271;28;20096;-73
2021/10/10 00:40:42;;;;;;;13.57;6.53;;;8.60;88.60;;;;;;5050296;28;20041;-73
2021/10/10 00:43:08;;;;;;;17.52;7.47;;;8.60;88.70;;;;;;5035165;28;20033;-73
2021/10/10 00:45:34;;;;;;;15.52;6.90;;;8.70;88.50;;;;;;5050641;28;20132;-73
2021/10/10 00:48:00;;;;;;;13.32;7.18;;;8.60;88.70;;;;;;5034872;28;20021;-73
2021/10/10 00:50:28;;;;;;;14.82;7.38;;;8.50;88.90;;;;;;5035135;28;20348;-73
2021/10/10 00:52:54;;;;;;;14.57;6.68;;;8.60;88.80;;;;;;5034855;28;20595;-73
2021/10/10 00:55:21;;;;;;;14.38;7.05;;;8.80;88.40;;;;;;5034660;28;20029;-73
2021/10/10 00:57:50;;;;;;;14.50;6.60;;;8.70;88.20;;;;;;5035245;28;20430;-73
2021/10/10 01:00:17;;;;;;;19.08;7.35;;;8.50;88.50;;;;;;5034550;28;20033;-74
2021/10/10 01:02:44;;;;;;;11.68;6.28;;;8.40;88.80;;;;;;5034807;28;20095;-74
2021/10/10 01:05:11;;;;;;;12.80;7.00;;;8.40;88.90;;;;;;5034762;28;20136;-73
2021/10/10 01:07:37;;;;;;;11.77;7.20;;;8.40;88.90;;;;;;5034740;28;20034;-74
2021/10/10 01:10:05;;;;;;;16.80;7.68;;;8.40;88.80;;;;;;5034656;28;20132;-74
2021/10/10 01:12:31;;;;;;;15.93;7.43;;;8.40;88.70;;;;;;5034581;28;20452;-74
2021/10/10 01:14:58;;;;;;;11.85;6.82;;;8.40;88.60;;;;;;5034467;28;20084;-74
2021/10/10 01:17:24;;;;;;;18.80;7.07;;;8.40;88.80;;;;;;5034096;28;20115;-74
2021/10/10 01:19:53;;;;;;;15.65;6.85;;;8.40;89.00;;;;;;5034371;28;20454;-73
2021/10/10 01:22:19;;;;;;;16.70;7.70;;;8.40;88.80;;;;;;5034232;28;20402;-74
2021/10/10 01:24:45;;;;;;;14.90;7.40;;;8.50;88.50;;;;;;5050351;28;20017;-73
2021/10/10 01:27:12;;;;;;;14.45;7.70;;;8.40;88.90;;;;;;5049662;28;20022;-73
2021/10/10 01:29:38;;;;;;;16.15;7.63;;;8.30;89.00;;;;;;5034085;28;20466;-71
2021/10/10 01:32:03;;;;;;;14.30;7.25;;;8.40;88.80;;;;;;5049567;28;20057;-74
2021/10/10 01:34:29;;;;;;;14.25;7.43;;;8.40;89.30;;;;;;5033870;28;20116;-74
2021/10/10 01:36:54;;;;;;;13.93;7.13;;;8.40;89.00;;;;;;5051970;28;20439;-74
2021/10/10 01:39:20;;;;;;;19.05;8.00;;;8.30;89.40;;;;;;5053760;28;20025;-73
2021/10/10 01:41:46;;;;;;;15.60;7.95;;;8.20;89.40;;;;;;5053494;28;20082;-73
2021/10/10 01:44:16;;;;;;;16.83;7.53;;;8.20;89.40;;;;;;5053781;28;20078;-74
2021/10/10 01:46:42;;;;;;;13.45;7.78;;;8.30;89.60;;;;;;5052498;28;20094;-74
2021/10/10 01:49:09;;;;;;;15.70;7.57;;;8.20;89.20;;;;;;5053849;28;20549;-74
2021/10/10 01:51:36;;;;;;;17.15;7.30;;;8.20;89.50;;;;;;5052646;28;20048;-74
2021/10/10 01:54:02;;;;;;;14.75;8.07;;;8.20;89.20;;;;;;5053532;28;20029;-71
2021/10/10 01:56:28;;;;;;;13.80;7.38;;;8.20;89.20;;;;;;5053433;28;20040;-72
2021/10/10 01:58:53;;;;;;;15.02;7.70;;;8.30;89.20;;;;;;5053287;28;20029;-74
2021/10/10 02:01:19;;;;;;;17.40;7.68;;;8.20;89.20;;;;;;5053208;28;20021;-74
2021/10/10 02:03:44;;;;;;;16.35;7.85;;;8.20;89.00;;;;;;5053875;28;20013;-72
2021/10/10 02:06:10;;;;;;;13.75;7.40;;;8.20;89.00;;;;;;5053313;28;20051;-71
2021/10/10 02:08:36;;;;;;;18.95;7.45;;;8.10;89.10;;;;;;5053198;28;20497;-73
2021/10/10 02:11:01;;;;;;;13.32;8.02;;;8.10;89.30;;;;;;5053111;28;20036;-73
2021/10/10 02:13:27;;;;;;;18.50;7.90;;;8.10;89.20;;;;;;5053294;28;20033;-74
2021/10/10 02:15:53;;;;;;;12.30;7.13;;;8.00;89.20;;;;;;5053937;28;20052;-73
2021/10/10 02:18:18;;;;;;;13.40;7.38;;;8.10;89.80;;;;;;5053125;28;20035;-73
2021/10/10 02:20:44;;;;;;;20.92;8.10;;;8.00;89.60;;;;;;5053390;28;20029;-73
2021/10/10 02:23:09;;;;;;;17.67;7.68;;;7.90;89.80;;;;;;5053068;28;20080;-73
2021/10/10 02:25:35;;;;;;;16.98;7.30;;;7.90;89.80;;;;;;5052959;28;20029;-73
2021/10/10 02:28:00;;;;;;;12.73;7.38;;;7.90;89.70;;;;;;5053410;28;20017;-73
2021/10/10 02:30:26;;;;;;;14.68;7.82;;;7.90;90.00;;;;;;5052796;28;20043;-73
2021/10/10 02:32:52;;;;;;;14.98;7.57;;;8.00;89.80;;;;;;5053234;28;20033;-73
2021/10/10 02:35:18;;;;;;;14.93;7.70;;;8.00;89.70;;;;;;5052614;28;20048;-73
2021/10/10 02:37:44;;;;;;;15.10;7.65;;;7.90;90.00;;;;;;5052985;28;20057;-73
2021/10/10 02:40:10;;;;;;;14.65;7.00;;;7.80;90.20;;;;;;5053155;28;20557;-73
2021/10/10 02:42:36;;;;;;;16.90;8.45;;;7.90;90.20;;;;;;5052726;28;20037;-73
2021/10/10 02:45:02;;;;;;;17.75;7.97;;;7.80;90.20;;;;;;5052880;28;20118;-73
2021/10/10 02:47:27;;;;;;;14.38;7.93;;;7.80;90.20;;;;;;5052604;28;20037;-74
2021/10/10 02:49:53;;;;;;;17.70;7.70;;;7.70;90.20;;;;;;5052731;28;20434;-73
2021/10/10 02:52:19;;;;;;;17.73;7.95;;;7.80;90.20;;;;;;5052146;28;20037;-73
2021/10/10 02:54:44;;;;;;;18.42;7.70;;;7.80;90.00;;;;;;5052359;28;20443;-73
2021/10/10 02:57:11;;;;;;;17.85;8.75;;;7.70;90.10;;;;;;5052387;28;20044;-72
2021/10/10 02:59:37;;;;;;;16.40;7.93;;;7.70;90.10;;;;;;5052429;28;20033;-72
2021/10/10 03:02:02;;;;;;;19.40;7.72;;;7.70;90.40;;;;;;5052318;28;20044;-72
2021/10/10 03:04:28;;;;;;;15.35;7.97;;;7.70;90.20;;;;;;5052153;28;20052;-73
2021/10/10 03:06:53;;;;;;;13.38;7.30;;;7.70;90.20;;;;;;5052699;28;20027;-72
2021/10/10 03:09:19;;;;;;;12.57;6.65;;;7.70;90.10;;;;;;5050366;28;20349;-72
2021/10/10 03:11:45;;;;;;;12.75;7.80;;;7.60;90.20;;;;;;5050979;28;20042;-72
2021/10/10 03:14:10;;;;;;;21.90;8.43;;;7.60;90.20;;;;;;5051965;28;20036;-73
2021/10/10 03:16:36;;;;;;;23.15;8.23;;;7.70;90.20;;;;;;5052250;28;20021;-73
2021/10/10 03:19:01;;;;;;;22.95;7.95;;;7.70;90.10;;;;;;5051478;28;20646;-72
2021/10/10 03:21:27;;;;;;;18.95;7.28;;;7.70;90.20;;;;;;5051883;28;20037;-72
2021/10/10 03:23:53;;;;;;;15.93;7.53;;;7.60;90.30;;;;;;5051918;28;20043;-73
2021/10/10 03:26:18;;;;;;;14.73;7.15;;;7.70;90.50;;;;;;5051791;28;20047;-73
2021/10/10 03:28:44;;;;;;;13.15;7.45;;;7.70;90.20;;;;;;5051704;28;20041;-72
2021/10/10 03:31:09;;;;;;;16.88;7.22;;;7.70;90.20;;;;;;5051865;28;20086;-72
2021/10/10 03:33:35;;;;;;;17.08;8.40;;;7.60;90.20;;;;;;5051948;28;20151;-72
2021/10/10 03:36:00;;;;;;;14.38;8.27;;;7.50;90.30;;;;;;5051969;28;20052;-73
2021/10/10 03:38:26;;;;;;;16.63;7.25;;;7.40;90.30;;;;;;5051640;28;20108;-73
2021/10/10 03:40:51;;;;;;;16.90;7.93;;;7.30;90.50;;;;;;5051657;28;20326;-73
2021/10/10 03:43:17;;;;;;;15.85;8.30;;;7.30;90.60;;;;;;5051305;28;20037;-73
2021/10/10 03:45:43;;;;;;;16.80;7.68;;;7.30;90.60;;;;;;5051833;28;20442;-73
2021/10/10 03:48:08;;;;;;;14.82;7.57;;;7.40;90.50;;;;;;5050505;28;20528;-73
2021/10/10 03:50:34;;;;;;;15.32;8.20;;;7.30;90.30;;;;;;5051110;28;20037;-73
2021/10/10 03:53:00;;;;;;;14.77;7.13;;;7.20;90.30;;;;;;5051578;28;20043;-73
2021/10/10 03:55:36;;;;;;;15.20;7.65;;;7.20;90.50;;;;;;5051292;28;20021;-73
2021/10/10 03:58:01;;;;;;;18.73;8.00;;;7.10;90.60;;;;;;5051934;28;20013;-73
2021/10/10 04:00:30;;;;;;;15.82;7.95;;;7.10;90.50;;;;;;5051210;28;20613;-73
2021/10/10 04:02:58;;;;;;;15.75;8.02;;;7.10;90.50;;;;;;5051351;28;20135;-73
2021/10/10 04:07:50;;;;;;;14.20;7.50;;;6.90;90.50;;;;;;5051346;28;20026;-73
2021/10/10 04:10:16;;;;;;;19.25;7.88;;;6.90;90.70;;;;;;5050878;28;20041;-72
2021/10/10 04:12:42;;;;;;;16.20;8.30;;;7.00;90.50;;;;;;5051460;28;20021;-72
2021/10/10 04:15:08;;;;;;;13.82;7.53;;;6.90;90.40;;;;;;5051186;28;20086;-72
2021/10/10 04:17:35;;;;;;;14.82;7.75;;;6.90;90.60;;;;;;5049750;28;20033;-74
2021/10/10 04:20:00;;;;;;;16.00;7.65;;;7.00;90.50;;;;;;5051131;28;20053;-72
2021/10/10 04:22:26;;;;;;;14.18;7.47;;;7.00;90.40;;;;;;5050934;28;20068;-71
2021/10/10 04:24:51;;;;;;;13.90;7.68;;;6.80;90.40;;;;;;5051577;28;20154;-72
2021/10/10 04:27:17;;;;;;;17.45;7.97;;;6.80;90.40;;;;;;5050025;28;20257;-72
2021/10/10 04:29:42;;;;;;;16.15;7.97;;;6.70;90.50;;;;;;5050905;28;20055;-72
2021/10/10 04:32:08;;;;;;;16.88;8.10;;;6.70;90.40;;;;;;5051141;28;20083;-72
2021/10/10 04:34:33;;;;;;;15.23;8.35;;;6.60;90.60;;;;;;5049814;28;20036;-72
2021/10/10 04:36:59;;;;;;;14.82;7.25;;;6.50;90.70;;;;;;5051392;28;20048;-72
2021/10/10 04:39:25;;;;;;;13.90;7.75;;;6.40;90.70;;;;;;5050799;28;20036;-73
2021/10/10 04:41:50;;;;;;;18.45;7.40;;;6.40;90.70;;;;;;5050946;28;20037;-72
2021/10/10 04:44:16;;;;;;;14.15;7.25;;;6.30;90.80;;;;;;5051139;28;20037;-72
2021/10/10 04:46:42;;;;;;;13.52;7.63;;;6.30;90.90;;;;;;5050825;28;20036;-73
2021/10/10 04:49:10;;;;;;;15.85;8.60;;;6.30;91.00;;;;;;5050405;28;20044;-72
2021/10/10 04:51:35;;;;;;;14.70;7.90;;;6.30;91.10;;;;;;5049870;28;20041;-72
2021/10/10 04:54:01;;;;;;;14.63;7.90;;;6.40;91.20;;;;;;5050812;28;20021;-72
2021/10/10 04:56:27;;;;;;;17.27;8.60;;;6.40;90.90;;;;;;5050606;28;20082;-73
2021/10/10 04:58:52;;;;;;;19.90;8.23;;;6.40;90.90;;;;;;5050455;28;20060;-74
2021/10/10 05:01:18;;;;;;;16.85;8.10;;;6.40;91.20;;;;;;5049786;28;20047;-73
2021/10/10 05:03:46;;;;;;;15.55;8.65;;;6.40;91.10;;;;;;5050985;28;20029;-72
2021/10/10 05:06:15;;;;;;;19.00;9.23;;;6.40;91.20;;;;;;5050879;28;20076;-72
2021/10/10 05:08:41;;;;;;;16.58;8.07;;;6.40;91.40;;;;;;5050385;28;20057;-73
2021/10/10 05:11:07;;;;;;;16.02;8.70;;;6.40;91.30;;;;;;5050972;28;20025;-72
2021/10/10 05:13:35;;;;;;;18.27;8.73;;;6.40;91.30;;;;;;5050521;28;20029;-73
2021/10/10 05:16:02;;;;;;;;;;;6.40;91.40;;;;;;5052149;28;20017;-73
2021/10/10 05:18:31;;;;;;;18.35;7.72;;;6.40;91.40;;;;;;5054169;28;19917;-72
2021/10/10 05:20:57;;;;;;;16.52;8.57;;;6.60;91.30;;;;;;5054207;28;20033;-72
2021/10/10 05:23:23;;;;;;;17.92;9.27;;;6.60;91.00;;;;;;5054310;28;20031;-72
2021/10/10 05:25:49;;;;;;;15.10;8.57;;;6.60;91.40;;;;;;5053962;28;20052;-72
2021/10/10 05:28:14;;;;;;;17.75;8.82;;;6.60;91.40;;;;;;5053920;28;20020;-72
2021/10/10 05:30:45;;;;;;;18.73;9.25;;;6.60;91.50;;;;;;5054175;28;20021;-72
2021/10/10 05:33:11;;;;;;;13.40;7.90;;;6.50;91.50;;;;;;5054126;28;20035;-72
2021/10/10 05:35:37;;;;;;;15.95;8.85;;;6.50;91.50;;;;;;5053807;28;20021;-73
2021/10/10 05:38:03;;;;;;;17.45;8.35;;;6.50;91.70;;;;;;5054043;28;20045;-73
2021/10/10 05:40:28;;;;;;;21.00;8.25;;;6.50;91.70;;;;;;5053816;28;20515;-73
2021/10/10 05:42:54;;;;;;;20.00;9.27;;;6.50;91.60;;;;;;5054109;28;20025;-72
2021/10/10 05:45:19;;;;;;;18.75;8.55;;;6.60;91.60;;;;;;5053729;28;20484;-73
2021/10/10 05:47:45;;;;;;;17.70;8.95;;;6.60;91.60;;;;;;5053426;28;20041;-72
2021/10/10 05:50:10;;;;;;;16.13;8.63;;;6.70;91.50;;;;;;5053654;28;20146;-72
2021/10/10 05:52:36;;;;;;;21.75;8.90;;;6.80;91.30;;;;;;5053487;28;20395;-72
2021/10/10 05:55:06;;;;;;;18.75;9.18;;;6.70;91.50;;;;;;5053862;28;20029;-74
2021/10/10 05:57:43;;;;;;;19.77;9.32;;;6.70;91.50;;;;;;5053619;28;20259;-73
2021/10/10 06:00:10;;;;;;;18.40;9.40;;;6.70;91.50;;;;;;5053627;28;20136;-73
2021/10/10 06:02:35;;;;;;;16.90;9.38;;;6.60;91.50;;;;;;5053207;28;20039;-73
2021/10/10 06:05:01;;;;;;;17.60;9.63;;;6.60;91.50;;;;;;5053413;28;20064;-73
2021/10/10 06:07:26;;;;;;;14.52;8.38;;;6.60;91.30;;;;;;5053359;28;20478;-73
2021/10/10 06:09:52;;;;;;;16.38;8.85;;;6.60;91.50;;;;;;5053398;28;20493;-73
2021/10/10 06:12:18;;;;;;;19.67;9.43;;;6.60;91.60;;;;;;5053549;28;20132;-73
2021/10/10 06:14:46;;;;;;;16.88;9.00;;;6.60;91.80;;;;;;5053160;28;20033;-73
2021/10/10 06:17:14;;;;;;;27.10;9.55;;;6.60;91.80;;;;;;5053303;28;20044;-73
2021/10/10 06:19:39;;;;;;;21.38;9.27;;;6.70;91.70;;;;;;5053072;28;20036;-73
2021/10/10 06:22:05;;;;;;;22.42;9.52;;;6.70;91.90;;;;;;5053764;28;20362;-73
2021/10/10 06:24:31;;;;;;;18.17;9.32;;;6.60;92.00;;;;;;5053058;28;20075;-72
2021/10/10 06:26:56;;;;;;;17.42;8.43;;;6.70;92.00;;;;;;5052890;28;20029;-72
2021/10/10 06:29:22;;;;;;;23.10;9.98;;;6.70;91.70;;;;;;5051649;28;20052;-73
2021/10/10 06:31:47;;;;;;;15.95;8.98;;;6.70;91.90;;;;;;5052795;28;20075;-73
2021/10/10 06:34:13;;;;;;;19.33;9.65;;;6.80;91.70;;;;;;5052805;28;20036;-74
2021/10/10 06:36:38;;;;;;;20.45;9.18;;;6.70;91.90;;;;;;5052004;28;20013;-72
2021/10/10 06:39:04;;;;;;;18.73;8.30;;;6.80;91.80;;;;;;5052542;28;20705;-71
2021/10/10 06:41:30;;;;;;;16.33;8.35;;;7.00;91.80;;;;;;5052850;28;20178;-73
2021/10/10 06:43:55;;;;;;;17.73;9.40;;;7.00;91.70;;;;;;5052504;28;20029;-73
2021/10/10 06:46:21;;;;;;;20.55;9.75;;;7.10;91.80;;;;;;5053398;28;20029;-72
2021/10/10 06:48:47;;;;;;;23.15;9.18;;;7.10;91.80;;;;;;5044030;28;20029;-73
2021/10/10 06:51:12;;;;;;;31.10;12.82;;;7.10;91.90;;;;;;5053185;28;20036;-72
2021/10/10 06:53:38;;;;;;;26.52;13.30;;;7.20;91.70;;;;;;5053040;28;20029;-72
2021/10/10 06:56:09;;;;;;;23.17;11.90;;;7.20;91.60;;;;;;5053044;28;20040;-73
2021/10/10 06:58:35;;;;;;;18.25;9.70;;;7.30;91.70;;;;;;5053551;28;20351;-74
2021/10/10 07:01:00;;;;;;;18.80;9.35;;;7.30;91.80;;;;;;5049855;28;20021;-76
2021/10/10 07:03:26;;;;;;;19.83;9.15;;;7.40;91.90;;;;;;5053351;28;20519;-73
2021/10/10 07:05:51;;;;;;;23.35;10.07;;;7.40;91.90;;;;;;5053225;28;20025;-73
2021/10/10 07:08:17;;;;;;;17.30;9.23;;;7.50;91.70;;;;;;5053006;28;20110;-73
2021/10/10 07:10:43;;;;;;;18.73;9.38;;;7.60;91.50;;;;;;5053183;28;20032;-72
2021/10/10 07:13:08;;;;;;;25.45;9.63;;;7.60;91.40;;;;;;5053148;28;20128;-76
2021/10/10 07:15:34;;;;;;;19.40;9.07;;;7.70;91.70;;;;;;5052898;28;20029;-76
2021/10/10 07:18:02;;;;;;;19.77;9.50;;;7.70;91.70;;;;;;5052843;28;20033;-76
2021/10/10 07:20:48;;;;;;;;;;;7.80;91.40;;;;;;5052412;28;20056;-76
2021/10/10 07:25:59;;;;;;;17.38;8.63;;;7.90;91.40;;;;;;5037709;28;20680;-77
2021/10/10 07:28:25;;;;;;;20.88;9.27;;;8.00;91.00;;;;;;5032363;28;20431;-79
2021/10/10 07:30:51;;;;;;;14.88;8.73;;;8.20;91.30;;;;;;5032479;28;20030;-76
2021/10/10 07:33:17;;;;;;;18.83;9.13;;;8.20;91.20;;;;;;5032959;28;20041;-75
2021/10/10 07:35:43;;;;;;;19.10;9.18;;;8.20;91.20;;;;;;5031771;28;20026;-76
2021/10/10 07:38:08;;;;;;;16.48;8.82;;;8.30;91.30;;;;;;5032655;28;20600;-75
2021/10/10 07:40:34;;;;;;;22.45;9.55;;;8.40;91.30;;;;;;5032980;28;20436;-76
2021/10/10 07:43:00;;;;;;;19.45;8.70;;;8.40;91.10;;;;;;5032509;28;20044;-74
2021/10/10 07:45:26;;;;;;;24.98;11.90;;;8.50;91.10;;;;;;5032660;28;20045;-77
2021/10/10 07:47:52;;;;;;;27.88;10.15;;;8.60;90.90;;;;;;5032584;28;20501;-76
2021/10/10 07:50:20;;;;;;;19.42;9.30;;;8.70;91.00;;;;;;5032616;28;20068;-77
2021/10/10 07:52:46;;;;;;;49.50;22.52;;;8.70;91.00;;;;;;5032892;28;20477;-76
2021/10/10 07:55:12;;;;;;;16.30;9.00;;;8.80;91.20;;;;;;5032655;28;20091;-76
2021/10/10 07:57:38;;;;;;;16.02;7.90;;;8.90;91.00;;;;;;5032624;28;20056;-76
2021/10/10 08:00:05;;;;;;;19.33;7.97;;;9.00;90.70;;;;;;5030738;28;20093;-76
2021/10/10 08:02:31;;;;;;;20.48;8.65;;;9.10;90.30;;;;;;5031234;28;20030;-74
2021/10/10 08:04:58;;;;;;;13.50;7.60;;;9.10;90.40;;;;;;5031774;28;20026;-76
2021/10/10 08:07:23;;;;;;;13.63;7.47;;;9.20;90.10;;;;;;5031553;28;20052;-75
2021/10/10 08:09:58;;;;;;;14.20;7.75;;;9.20;90.10;;;;;;5031890;28;20045;-75
2021/10/10 08:12:32;;;;;;;13.43;6.80;;;9.30;90.10;;;;;;5032279;28;20044;-74
2021/10/10 08:14:58;;;;;;;16.73;7.65;;;9.40;90.10;;;;;;5031928;28;20033;-73
2021/10/10 08:17:23;;;;;;;18.35;8.13;;;9.40;89.60;;;;;;5032139;28;20125;-74
2021/10/10 08:19:49;;;;;;;16.45;8.70;;;9.50;89.80;;;;;;5032760;28;20029;-74
2021/10/10 08:22:16;;;;;;;15.82;6.85;;;9.60;88.90;;;;;;5032066;28;20493;-74
2021/10/10 08:24:42;;;;;;;17.23;7.55;;;9.70;89.00;;;;;;5031385;28;20459;-74
2021/10/10 08:27:07;;;;;;;19.02;7.75;;;9.80;89.10;;;;;;5032247;28;20041;-73
2021/10/10 08:29:33;;;;;;;19.45;7.85;;;9.80;88.80;;;;;;5032089;28;20148;-73
2021/10/10 08:31:58;;;;;;;18.50;7.50;;;10.00;88.00;;;;;;5032052;28;20499;-73
2021/10/10 08:34:24;;;;;;;11.95;6.45;;;10.10;87.30;;;;;;5031460;28;20068;-76
2021/10/10 08:36:49;;;;;;;19.88;7.38;;;10.30;86.20;;;;;;5032094;28;20030;-75
2021/10/10 08:39:22;;;;;;;17.55;8.15;;;10.80;86.30;;;;;;5031827;28;20478;-74
2021/10/10 08:41:49;;;;;;;13.98;6.97;;;11.40;85.70;;;;;;5032347;28;20021;-74
2021/10/10 08:44:18;;;;;;;12.13;6.68;;;12.20;84.70;;;;;;5031456;28;20022;-76
2021/10/10 08:46:45;;;;;;;16.45;7.38;;;13.10;83.60;;;;;;5032559;28;20036;-74
2021/10/10 08:49:11;;;;;;;15.45;6.13;;;13.90;82.00;;;;;;5031703;28;20046;-73
2021/10/10 08:51:38;;;;;;;18.20;6.50;;;14.60;79.90;;;;;;5033652;28;20030;-74
2021/10/10 08:54:04;;;;;;;10.13;5.80;;;15.30;78.00;;;;;;5035679;28;20119;-74
2021/10/10 08:56:31;;;;;;;15.48;6.65;;;16.10;78.40;;;;;;5035832;28;20469;-74
2021/10/10 08:58:57;;;;;;;13.48;6.28;;;16.70;76.30;;;;;;5035771;28;20052;-74
2021/10/10 09:01:33;;;;;;;16.10;6.25;;;17.20;71.50;;;;;;5035581;28;20107;-75
2021/10/10 09:03:59;;;;;;;12.15;6.03;;;18.00;70.20;;;;;;5035491;28;20107;-73
2021/10/10 09:06:25;;;;;;;10.65;6.05;;;18.50;67.60;;;;;;5035543;28;20460;-75
2021/10/10 09:08:53;;;;;;;9.93;6.22;;;19.00;68.60;;;;;;5035237;28;20046;-75
2021/10/10 09:11:21;;;;;;;10.73;6.05;;;19.40;62.10;;;;;;5035318;28;20029;-77
2021/10/10 09:13:48;;;;;;;11.27;6.13;;;19.80;61.10;;;;;;5035716;28;20515;-74
2021/10/10 09:16:14;;;;;;;10.73;6.20;;;20.20;59.30;;;;;;5035301;28;20113;-77
2021/10/10 09:18:44;;;;;;;13.32;5.38;;;21.30;60.40;;;;;;5034296;28;20034;-75
2021/10/10 09:21:22;;;;;;;12.20;5.70;;;22.40;58.00;;;;;;5035351;28;20451;-77
2021/10/10 09:23:54;;;;;;;9.52;6.05;;;22.70;54.10;;;;;;5035476;28;20440;-74
2021/10/10 09:26:21;;;;;;;8.38;5.38;;;23.50;54.70;;;;;;5035292;28;20029;-75
2021/10/10 09:28:48;;;;;;;9.50;5.88;;;24.60;52.20;;;;;;5035443;28;20490;-75
2021/10/10 09:31:14;;;;;;;11.20;5.75;;;25.00;52.10;;;;;;5034944;28;20305;-76
2021/10/10 09:33:54;;;;;;;9.75;5.63;;;24.70;48.80;;;;;;5034908;28;20033;-75
2021/10/10 09:36:22;;;;;;;9.98;5.90;;;24.90;47.40;;;;;;5034993;28;20030;-78
2021/10/10 09:39:13;;;;;;;10.27;6.05;;;25.40;47.70;;;;;;5035055;28;20103;-74
2021/10/10 09:41:48;;;;;;;8.52;5.43;;;25.60;47.10;;;;;;5034521;28;20038;-72
2021/10/10 09:44:17;;;;;;;9.43;6.40;;;25.90;46.00;;;;;;5034504;28;20021;-71
2021/10/10 09:46:45;;;;;;;11.20;5.95;;;26.30;49.20;;;;;;5035366;28;20047;-73
2021/10/10 09:49:32;;;;;;;9.65;5.25;;;25.70;46.30;;;;;;5034628;28;20030;-72
2021/10/10 09:52:07;;;;;;;10.63;5.88;;;25.80;45.00;;;;;;5034675;28;20041;-74
2021/10/10 09:54:55;;;;;;;8.60;5.25;;;25.90;44.20;;;;;;5034634;28;20112;-73
2021/10/10 09:57:23;;;;;;;10.18;5.90;;;26.00;44.30;;;;;;5034371;28;20428;-73
2021/10/10 09:59:49;;;;;;;10.53;6.07;;;25.60;44.30;;;;;;5034451;28;20038;-74
2021/10/10 10:02:15;;;;;;;13.02;5.50;;;25.50;44.30;;;;;;5033789;28;20459;-72
2021/10/10 10:04:46;;;;;;;10.73;5.80;;;25.30;44.70;;;;;;5035165;28;20051;-73
2021/10/10 10:07:14;;;;;;;8.73;5.60;;;25.70;44.70;;;;;;5034237;28;20119;-74
2021/10/10 10:09:40;;;;;;;11.52;5.65;;;25.80;43.70;;;;;;5034268;28;20091;-74
2021/10/10 10:12:07;;;;;;;10.93;5.60;;;25.80;44.40;;;;;;5034203;28;20030;-73
2021/10/10 10:14:33;;;;;;;9.25;5.65;;;25.50;45.00;;;;;;5032821;28;20455;-74
2021/10/10 10:17:01;;;;;;;10.23;6.13;;;24.80;45.00;;;;;;5034293;28;20045;-73
2021/10/10 10:19:28;;;;;;;8.75;5.53;;;24.90;45.60;;;;;;5034365;28;20024;-74
2021/10/10 10:21:56;;;;;;;12.65;5.07;;;25.30;44.80;;;;;;5033111;28;20087;-73
2021/10/10 10:24:23;;;;;;;7.85;5.20;;;25.10;44.20;;;;;;5034147;28;20032;-83
2021/10/10 10:26:49;;;;;;;12.07;5.75;;;25.40;45.20;;;;;;5033054;28;20041;-73
2021/10/10 10:29:23;;;;;;;14.55;5.53;;;25.20;44.60;;;;;;5033236;28;20029;-73
2021/10/10 10:31:50;;;;;;;11.55;5.38;;;24.70;44.70;;;;;;5033349;28;20041;-73
2021/10/10 10:34:30;;;;;;;10.32;5.68;;;25.30;45.20;;;;;;5033738;28;20052;-74
2021/10/10 10:37:03;;;;;;;11.43;5.88;;;24.40;44.60;;;;;;5033749;28;20032;-73
2021/10/10 10:39:47;;;;;;;13.07;5.68;;;23.90;44.80;;;;;;5033664;28;20475;-73
2021/10/10 10:42:39;;;;;;;10.27;5.78;;;24.00;45.30;;;;;;5033436;28;20049;-74
2021/10/10 10:45:24;;;;;;;11.20;5.68;;;24.30;45.50;;;;;;5034065;28;20103;-74
2021/10/10 10:47:53;;;;;;;12.05;5.57;;;24.80;45.60;;;;;;5033776;28;20025;-74
2021/10/10 10:50:22;;;;;;;12.80;5.85;;;24.20;45.70;;;;;;5032192;28;20044;-75
2021/10/10 10:53:08;;;;;;;12.27;5.95;;;24.80;45.80;;;;;;5033866;28;20494;-74
2021/10/10 10:55:39;;;;;;;9.80;5.95;;;24.70;44.50;;;;;;5033435;28;20057;-72
2021/10/10 10:58:15;;;;;;;12.10;5.97;;;24.80;44.20;;;;;;5033131;28;20033;-73
2021/10/10 11:01:04;;;;;;;11.18;6.30;;;25.00;45.10;;;;;;5032884;28;20029;-73
2021/10/10 11:03:30;;;;;;;9.88;5.65;;;25.10;45.10;;;;;;5032774;28;20463;-73
2021/10/10 11:06:17;;;;;;;12.23;5.63;;;25.20;45.30;;;;;;5032994;28;20370;-74
2021/10/10 11:08:44;;;;;;;9.45;5.50;;;24.70;45.20;;;;;;5032626;28;20059;-75
2021/10/10 11:11:13;;;;;;;14.10;6.60;;;24.30;46.60;;;;;;5032775;28;20064;-73
2021/10/10 11:13:41;;;;;;;9.60;5.78;;;24.10;45.80;;;;;;5032365;28;20029;-72
2021/10/10 11:16:14;;;;;;;11.52;5.47;;;23.40;46.30;;;;;;5032680;28;20416;-72
2021/10/10 11:18:48;;;;;;;9.02;5.32;;;23.10;46.50;;;;;;5032475;28;20026;-72
2021/10/10 11:21:25;;;;;;;14.15;6.07;;;22.50;46.90;;;;;;5031459;28;20033;-73
2021/10/10 11:23:57;;;;;;;12.77;6.05;;;21.60;48.10;;;;;;5031452;28;20117;-72
2021/10/10 11:26:24;;;;;;;26.42;14.38;;;21.20;48.90;;;;;;5032409;28;20402;-71
2021/10/10 11:28:52;;;;;;;43.73;19.73;;;20.90;49.50;;;;;;5032795;28;20087;-69
2021/10/10 11:31:25;;;;;;;15.15;6.07;;;20.80;49.60;;;;;;5031087;28;20458;-72
2021/10/10 11:33:59;;;;;;;12.75;5.82;;;20.60;50.30;;;;;;5032183;28;20419;-72
2021/10/10 11:36:40;;;;;;;14.35;8.43;;;20.30;52.90;;;;;;5032465;28;20072;-73
2021/10/10 11:39:10;;;;;;;11.02;5.90;;;20.00;53.20;;;;;;5032416;28;20463;-72
2021/10/10 11:41:40;;;;;;;11.65;5.70;;;19.90;53.80;;;;;;5031909;28;20037;-72
2021/10/10 11:44:08;;;;;;;11.20;5.72;;;19.80;53.30;;;;;;5032149;28;20032;-73
2021/10/10 11:46:38;;;;;;;;;;;19.90;52.60;;;;;;5033036;28;20087;-73
2021/10/10 11:49:21;;;;;;;8.80;5.20;;;19.90;53.30;;;;;;5032113;28;20003;-73
2021/10/10 11:51:49;;;;;;;8.52;5.03;;;19.80;52.70;;;;;;5032000;28;20030;-73
2021/10/10 11:54:35;;;;;;;9.63;4.97;;;19.80;52.20;;;;;;5031854;28;20051;-74
2021/10/10 11:57:01;;;;;;;10.60;5.25;;;19.70;51.80;;;;;;5031995;28;20022;-73
2021/10/10 11:59:27;;;;;;;12.35;6.57;;;19.70;52.30;;;;;;5031775;28;20032;-73
2021/10/10 12:01:54;;;;;;;10.13;5.13;;;19.40;52.00;;;;;;5032373;28;20013;-73
2021/10/10 12:04:20;;;;;;;12.33;5.87;;;19.50;53.50;;;;;;5031976;28;20068;-73
2021/10/10 12:06:47;;;;;;;16.13;6.40;;;19.60;53.10;;;;;;5031840;28;20396;-73
2021/10/10 12:09:13;;;;;;;13.05;6.63;;;19.60;55.50;;;;;;5031375;28;20128;-72
2021/10/10 12:11:40;;;;;;;11.88;6.00;;;19.70;54.40;;;;;;5031457;28;20040;-71
2021/10/10 12:14:07;;;;;;;12.32;6.28;;;19.70;54.20;;;;;;5030577;28;20053;-72
2021/10/10 12:16:43;;;;;;;9.33;4.77;;;19.50;53.20;;;;;;5031727;28;20017;-72
2021/10/10 12:19:10;;;;;;;14.70;6.80;;;19.40;51.90;;;;;;5029886;28;20124;-73
2021/10/10 12:21:39;;;;;;;11.07;5.43;;;19.30;51.70;;;;;;5031289;28;20037;-71
2021/10/10 12:24:18;;;;;;;9.35;4.82;;;19.10;52.20;;;;;;5031298;28;20033;-73
2021/10/10 12:26:55;;;;;;;8.95;4.07;;;19.10;53.50;;;;;;5034572;28;20048;-73
2021/10/10 12:29:31;;;;;;;7.53;4.25;;;18.90;52.50;;;;;;5035187;28;20052;-72
2021/10/10 12:32:20;;;;;;;9.02;4.20;;;18.80;51.70;;;;;;5035678;28;20090;-72
2021/10/10 12:34:46;;;;;;;9.57;4.35;;;18.60;51.30;;;;;;5035083;28;20045;-72
2021/10/10 12:37:23;;;;;;;8.70;4.88;;;18.50;51.90;;;;;;5035145;28;20049;-73
2021/10/10 12:39:50;;;;;;;8.53;4.23;;;18.50;51.60;;;;;;5034013;28;20037;-72
2021/10/10 12:42:20;;;;;;;10.73;3.95;;;18.40;51.80;;;;;;5035159;28;20084;-71
2021/10/10 12:45:06;;;;;;;7.63;3.90;;;18.20;51.40;;;;;;5034981;28;20049;-72
2021/10/10 12:47:31;;;;;;;6.68;3.45;;;18.10;51.80;;;;;;5034981;28;20476;-72
2021/10/10 12:49:57;;;;;;;8.02;4.22;;;18.20;51.90;;;;;;5035154;28;20100;-74
2021/10/10 12:52:36;;;;;;;11.35;3.90;;;18.20;51.80;;;;;;5034881;28;20038;-73
2021/10/10 12:55:04;;;;;;;8.27;4.40;;;18.00;52.00;;;;;;5034852;28;20025;-73